Airfield :
LOGIN :

Register | Disclaimer

   EN    FR    IT 

 










Legend :    VFR   Marginal VFR   IFR   Intensive IFR   Very Intensive IFR
Visi :
Ceiling :
>= 8 km
>= 3000ft
5 to 8 km
1000 to 3000 ft
1500m to 5 km
500 to 1000 ft
800 to 1500m
200 to 500 ft
< 800m
< 200 ft
Symbols :   Thunderstorms  Fog  Heavy snow  Heavy precipitations  Wind > 20 kt
SIGMETs :     Misc.  Thunderstorms  Icing  Turbulence  Mountain Waves  Volcanic Ashes







- Airport Elevation : 82 ft
- IATA code : ALG


DAAG - Alger Houari Boumedienne

CURRENT METAR :
  • 150600Z 27006KT 230V300 9999 FEW023 SCT043 11/10 Q1024

EXPIRED METARs :
  • 150530Z 27006KT 240V310 9999 FEW023 SCT073 11/09 Q1024
  • 150500Z 26005KT 230V300 9999 FEW023 SCT073 11/10 Q1024
  • 150430Z 26007KT 240V300 9999 FEW023 SCT043 11/10 Q1024
  • 150400Z 25004KT 220V290 9999 FEW023 BKN043 11/10 Q1024
  • 150330Z 26003KT 210V290 9999 FEW023 BKN043 11/10 Q1024

TAF TAF DAAG
Valid from the 15 at 06:00 until the 16 at 06:00 UTC


150500Z 1506/1606 28010KT 9999 FEW030
PROB30
TEMPO 1508/1512 FEW020TCU
BECMG 1518/1522 20008KT
No reported NOTAMs for that airfield.



MET'MAP, your aeronautical weather chart ! - Copyright ORBIFLY December 2007 - Disclaimer

ORBIFLY MET'MAP TEAM :

Programming & Development : Alexandra Zaïnal
Concept & Development : Baudouin d'Aumeries
Co-Development & Prog : Marc-Olivier Méhu
Technical & hardware support : Manuel Goepfert

Contact : metmap@orbifly.com




SOURCES & CREDITS :

   NOAA